To: (Separate email addresses with commas)
From: (Your email address)
Message: (Optional)
Send
Cancel

Thanks!

Close

Can You Land At This Airport?

Cessna 182 Primary Andrew Cohen

Scenario:

You're a non-instrument rated private pilot taking a cross-country in your Cessna 182 from Boulder, CO (KBDU) to Cheyenne, WY (KCYS).

You takeoff from Boulder at noon. Shortly into your flight, the weather starts to deteriorate. You look on your sectional for diversion airports and spot Fort Collins (KFNL) about 10 miles ahead. Based on the sectional, KFNL has Class E airspace to the surface. The next thing you do is tune into AWOS to get the weather:
KFNL 191553Z AUTO 28003KT 3SM OVC009 22/14 A2966 RMK AO1

Fort Collins Sectional

Based on this weather, can you divert and land at Fort Collins?

  1. Vote Option 1
    Unchecked Checked

    Votes:

  2. Vote Option 2
    Unchecked Checked

    Votes:

  3. Vote Option 3
    Unchecked Checked

    Votes:

View The Results

You've cast your vote, now see what your friends think!

Pass it on and see if your friends think they can land at Fort Collins. Then, click here for the answer!

Share on Facebook Share on Twitter
Pic

Images Courtesy:

Recommended Stories

Latest Stories

    Load More
    Share on Facebook Share on Twitter Share via Email